sensor_id;sensor_type;location;lat;lon;timestamp;pressure;altitude;pressure_sealevel;temperature;humidity
17254;BME280;32542;52.832;13.816;2023-04-29T00:02:42;100934.00;;;21.80;46.51
17254;BME280;32542;52.832;13.816;2023-04-29T00:05:46;100931.50;;;21.77;46.68
17254;BME280;32542;52.832;13.816;2023-04-29T00:08:49;100928.06;;;21.75;46.59
17254;BME280;32542;52.832;13.816;2023-04-29T00:11:54;100925.38;;;21.75;46.67
17254;BME280;32542;52.832;13.816;2023-04-29T00:14:57;100920.13;;;21.73;46.78
17254;BME280;32542;52.832;13.816;2023-04-29T00:18:00;100906.63;;;21.76;46.56
17254;BME280;32542;52.832;13.816;2023-04-29T00:21:02;100908.22;;;21.81;46.48
17254;BME280;32542;52.832;13.816;2023-04-29T00:24:07;100906.38;;;21.83;46.49
17254;BME280;32542;52.832;13.816;2023-04-29T00:27:11;100905.28;;;21.87;46.35
17254;BME280;32542;52.832;13.816;2023-04-29T00:30:13;100909.69;;;21.88;46.19
17254;BME280;32542;52.832;13.816;2023-04-29T00:33:16;100905.22;;;21.88;46.29
17254;BME280;32542;52.832;13.816;2023-04-29T00:36:19;100905.28;;;21.87;46.20
17254;BME280;32542;52.832;13.816;2023-04-29T00:39:22;100909.94;;;21.82;46.33
17254;BME280;32542;52.832;13.816;2023-04-29T00:42:26;100905.44;;;21.84;46.40
17254;BME280;32542;52.832;13.816;2023-04-29T00:45:30;100907.22;;;21.83;46.38
17254;BME280;32542;52.832;13.816;2023-04-29T00:48:33;100910.84;;;21.82;46.42
17254;BME280;32542;52.832;13.816;2023-04-29T00:51:36;100903.75;;;21.81;46.36
17254;BME280;32542;52.832;13.816;2023-04-29T00:54:40;100900.19;;;21.82;46.44
17254;BME280;32542;52.832;13.816;2023-04-29T00:57:44;100901.91;;;21.83;46.30
17254;BME280;32542;52.832;13.816;2023-04-29T01:00:48;100899.16;;;21.85;46.34
17254;BME280;32542;52.832;13.816;2023-04-29T01:03:51;100900.19;;;21.82;46.24
17254;BME280;32542;52.832;13.816;2023-04-29T01:07:00;100894.88;;;21.82;46.25
17254;BME280;32542;52.832;13.816;2023-04-29T01:10:09;100891.34;;;21.80;46.41
17254;BME280;32542;52.832;13.816;2023-04-29T01:13:24;100894.88;;;21.82;46.35
17254;BME280;32542;52.832;13.816;2023-04-29T01:16:36;100885.91;;;21.83;46.19
17254;BME280;32542;52.832;13.816;2023-04-29T01:19:46;100885.91;;;21.83;46.25
17254;BME280;32542;52.832;13.816;2023-04-29T01:22:50;100871.66;;;21.84;46.24
17254;BME280;32542;52.832;13.816;2023-04-29T01:25:54;100863.66;;;21.84;46.24
17254;BME280;32542;52.832;13.816;2023-04-29T01:29:31;100858.31;;;21.84;46.26
17254;BME280;32542;52.832;13.816;2023-04-29T01:32:45;100856.59;;;21.83;46.29
17254;BME280;32542;52.832;13.816;2023-04-29T01:36:02;100855.75;;;21.81;46.38
17254;BME280;32542;52.832;13.816;2023-04-29T01:39:13;100861.97;;;21.82;46.29
17254;BME280;32542;52.832;13.816;2023-04-29T01:42:25;100863.84;;;21.80;46.27
17254;BME280;32542;52.832;13.816;2023-04-29T01:45:33;100878.97;;;21.79;46.37
17254;BME280;32542;52.832;13.816;2023-04-29T01:48:36;100872.06;;;21.75;46.38
17254;BME280;32542;52.832;13.816;2023-04-29T01:51:39;100879.28;;;21.73;46.57
17254;BME280;32542;52.832;13.816;2023-04-29T01:54:42;100873.97;;;21.73;46.50
17254;BME280;32542;52.832;13.816;2023-04-29T01:57:46;100865.00;;;21.74;46.36
17254;BME280;32542;52.832;13.816;2023-04-29T02:01:11;100867.63;;;21.75;46.51
17254;BME280;32542;52.832;13.816;2023-04-29T02:04:15;100873.78;;;21.76;46.43
17254;BME280;32542;52.832;13.816;2023-04-29T02:07:18;100871.13;;;21.76;46.41
17254;BME280;32542;52.832;13.816;2023-04-29T02:10:22;100861.31;;;21.76;46.50
17254;BME280;32542;52.832;13.816;2023-04-29T02:13:34;100853.41;;;21.75;46.44
17254;BME280;32542;52.832;13.816;2023-04-29T02:16:37;100853.41;;;21.75;46.37
17254;BME280;32542;52.832;13.816;2023-04-29T02:19:41;100854.34;;;21.74;46.44
17254;BME280;32542;52.832;13.816;2023-04-29T02:22:44;100854.34;;;21.74;46.27
17254;BME280;32542;52.832;13.816;2023-04-29T02:25:47;100848.16;;;21.73;46.33
17254;BME280;32542;52.832;13.816;2023-04-29T02:28:51;100847.38;;;21.71;46.40
17254;BME280;32542;52.832;13.816;2023-04-29T02:31:55;100844.72;;;21.71;46.43
17254;BME280;32542;52.832;13.816;2023-04-29T02:34:58;100838.53;;;21.71;46.43
17254;BME280;32542;52.832;13.816;2023-04-29T02:38:02;100841.19;;;21.71;46.49
17254;BME280;32542;52.832;13.816;2023-04-29T02:41:05;100843.06;;;21.69;46.44
17254;BME280;32542;52.832;13.816;2023-04-29T02:44:09;100851.13;;;21.67;46.50
17254;BME280;32542;52.832;13.816;2023-04-29T02:47:11;100842.13;;;21.70;46.59
17254;BME280;32542;52.832;13.816;2023-04-29T02:50:15;100844.72;;;21.71;46.60
17254;BME280;32542;52.832;13.816;2023-04-29T02:53:17;100837.66;;;21.70;46.57
17254;BME280;32542;52.832;13.816;2023-04-29T02:56:21;100844.72;;;21.71;46.39
17254;BME280;32542;52.832;13.816;2023-04-29T02:59:26;100845.56;;;21.72;46.38
17254;BME280;32542;52.832;13.816;2023-04-29T03:02:28;100835.84;;;21.71;46.40
17254;BME280;32542;52.832;13.816;2023-04-29T03:05:33;100844.94;;;21.67;46.49
17254;BME280;32542;52.832;13.816;2023-04-29T03:08:36;100838.84;;;21.65;46.64
17254;BME280;32542;52.832;13.816;2023-04-29T03:11:39;100845.09;;;21.64;46.59
17254;BME280;32542;52.832;13.816;2023-04-29T03:14:43;100838.97;;;21.62;46.66
17254;BME280;32542;52.832;13.816;2023-04-29T03:17:46;100839.94;;;21.61;46.72
17254;BME280;32542;52.832;13.816;2023-04-29T03:20:49;100841.72;;;21.60;46.76
17254;BME280;32542;52.832;13.816;2023-04-29T03:23:52;100831.94;;;21.61;46.71
17254;BME280;32542;52.832;13.816;2023-04-29T03:27:02;100830.19;;;21.60;46.81
17254;BME280;32542;52.832;13.816;2023-04-29T03:30:09;100830.97;;;21.62;46.72
17254;BME280;32542;52.832;13.816;2023-04-29T03:33:19;100820.22;;;21.63;46.56
17254;BME280;32542;52.832;13.816;2023-04-29T03:36:22;100828.31;;;21.62;46.64
17254;BME280;32542;52.832;13.816;2023-04-29T03:39:37;100824.72;;;21.63;46.65
17254;BME280;32542;52.832;13.816;2023-04-29T03:42:40;100823.78;;;21.64;46.71
17254;BME280;32542;52.832;13.816;2023-04-29T03:45:45;100836.16;;;21.65;46.67
17254;BME280;32542;52.832;13.816;2023-04-29T03:48:51;100833.50;;;21.65;46.71
17254;BME280;32542;52.832;13.816;2023-04-29T03:51:57;100831.63;;;21.67;46.64
17254;BME280;32542;52.832;13.816;2023-04-29T03:55:00;100831.63;;;21.67;46.66
17254;BME280;32542;52.832;13.816;2023-04-29T03:58:02;100835.13;;;21.67;46.67
17254;BME280;32542;52.832;13.816;2023-04-29T04:01:07;100832.47;;;21.67;46.64
17254;BME280;32542;52.832;13.816;2023-04-29T04:04:17;100837.78;;;21.67;46.66
17254;BME280;32542;52.832;13.816;2023-04-29T04:07:22;100849.31;;;21.68;46.61
17254;BME280;32542;52.832;13.816;2023-04-29T04:10:49;100839.53;;;21.68;46.54
17254;BME280;32542;52.832;13.816;2023-04-29T04:14:06;100833.34;;;21.68;46.60
17254;BME280;32542;52.832;13.816;2023-04-29T04:17:10;100847.53;;;21.68;46.67
17254;BME280;32542;52.832;13.816;2023-04-29T04:20:13;100839.53;;;21.68;46.63
17254;BME280;32542;52.832;13.816;2023-04-29T04:23:16;100845.72;;;21.69;46.63
17254;BME280;32542;52.832;13.816;2023-04-29T04:26:19;100851.06;;;21.69;46.62
17254;BME280;32542;52.832;13.816;2023-04-29T04:29:26;100842.19;;;21.68;46.66
17254;BME280;32542;52.832;13.816;2023-04-29T04:32:45;100842.28;;;21.67;46.61
17254;BME280;32542;52.832;13.816;2023-04-29T04:35:48;100833.34;;;21.68;46.72
17254;BME280;32542;52.832;13.816;2023-04-29T04:38:51;100840.41;;;21.69;46.58
17254;BME280;32542;52.832;13.816;2023-04-29T04:41:55;100838.66;;;21.68;46.67
17254;BME280;32542;52.832;13.816;2023-04-29T04:44:59;100838.66;;;21.68;46.67
17254;BME280;32542;52.832;13.816;2023-04-29T04:48:17;100828.00;;;21.68;46.62
17254;BME280;32542;52.832;13.816;2023-04-29T04:51:23;100837.78;;;21.67;46.81
17254;BME280;32542;52.832;13.816;2023-04-29T04:54:26;100832.47;;;21.67;46.56
17254;BME280;32542;52.832;13.816;2023-04-29T04:57:38;100836.94;;;21.67;46.57
17254;BME280;32542;52.832;13.816;2023-04-29T05:00:43;100845.88;;;21.66;46.69
17254;BME280;32542;52.832;13.816;2023-04-29T05:03:47;100840.53;;;21.66;46.61
17254;BME280;32542;52.832;13.816;2023-04-29T05:06:50;100836.09;;;21.66;46.67
17254;BME280;32542;52.832;13.816;2023-04-29T05:09:55;100840.53;;;21.66;46.71
17254;BME280;32542;52.832;13.816;2023-04-29T05:12:58;100845.88;;;21.66;46.71
17254;BME280;32542;52.832;13.816;2023-04-29T05:16:01;100844.06;;;21.66;46.58
17254;BME280;32542;52.832;13.816;2023-04-29T05:19:14;100847.63;;;21.67;46.67
17254;BME280;32542;52.832;13.816;2023-04-29T05:22:18;100858.28;;;21.67;46.62
17254;BME280;32542;52.832;13.816;2023-04-29T05:25:21;100851.19;;;21.66;46.67
17254;BME280;32542;52.832;13.816;2023-04-29T05:28:24;100850.34;;;21.65;46.72
17254;BME280;32542;52.832;13.816;2023-04-29T05:31:30;100860.16;;;21.65;46.72
17254;BME280;32542;52.832;13.816;2023-04-29T05:34:38;100861.16;;;21.62;46.67
17254;BME280;32542;52.832;13.816;2023-04-29T05:37:41;100862.09;;;21.61;46.74
17254;BME280;32542;52.832;13.816;2023-04-29T05:41:04;100863.91;;;21.61;46.80
17254;BME280;32542;52.832;13.816;2023-04-29T05:44:18;100863.91;;;21.61;46.78
17254;BME280;32542;52.832;13.816;2023-04-29T05:47:21;100870.09;;;21.61;46.81
17254;BME280;32542;52.832;13.816;2023-04-29T05:50:26;100871.75;;;21.64;46.75
17254;BME280;32542;52.832;13.816;2023-04-29T05:53:29;100869.06;;;21.64;46.65
17254;BME280;32542;52.832;13.816;2023-04-29T05:56:32;100869.94;;;21.64;46.79
17254;BME280;32542;52.832;13.816;2023-04-29T05:59:35;100872.69;;;21.63;46.81
17254;BME280;32542;52.832;13.816;2023-04-29T06:02:39;100879.72;;;21.64;46.82
17254;BME280;32542;52.832;13.816;2023-04-29T06:06:00;100881.53;;;21.63;46.81
17254;BME280;32542;52.832;13.816;2023-04-29T06:09:10;100878.94;;;21.62;46.69
17254;BME280;32542;52.832;13.816;2023-04-29T06:12:28;100886.03;;;21.63;46.73
17254;BME280;32542;52.832;13.816;2023-04-29T06:15:32;100882.50;;;21.62;46.74
17254;BME280;32542;52.832;13.816;2023-04-29T06:18:35;100893.16;;;21.62;46.79
17254;BME280;32542;52.832;13.816;2023-04-29T06:21:39;100890.47;;;21.62;46.83
17254;BME280;32542;52.832;13.816;2023-04-29T06:24:42;100892.19;;;21.63;46.77
17254;BME280;32542;52.832;13.816;2023-04-29T06:27:48;100902.78;;;21.65;46.78
17254;BME280;32542;52.832;13.816;2023-04-29T06:30:54;100909.84;;;21.66;46.76
17254;BME280;32542;52.832;13.816;2023-04-29T06:33:57;100900.91;;;21.67;46.75
17254;BME280;32542;52.832;13.816;2023-04-29T06:37:02;100901.84;;;21.66;46.70
17254;BME280;32542;52.832;13.816;2023-04-29T06:40:34;100908.91;;;21.67;46.73
17254;BME280;32542;52.832;13.816;2023-04-29T06:43:55;100905.38;;;21.66;46.69
17254;BME280;32542;52.832;13.816;2023-04-29T06:47:11;100911.56;;;21.67;46.74
17254;BME280;32542;52.832;13.816;2023-04-29T06:50:21;100915.16;;;21.66;46.68
17254;BME280;32542;52.832;13.816;2023-04-29T06:53:26;100924.13;;;21.65;46.78
17254;BME280;32542;52.832;13.816;2023-04-29T06:56:29;100924.97;;;21.65;46.72
17254;BME280;32542;52.832;13.816;2023-04-29T06:59:32;100934.78;;;21.65;46.83
17254;BME280;32542;52.832;13.816;2023-04-29T07:02:37;100931.25;;;21.64;46.72
17254;BME280;32542;52.832;13.816;2023-04-29T07:05:40;100929.44;;;21.65;46.68
17254;BME280;32542;52.832;13.816;2023-04-29T07:08:47;100937.34;;;21.66;46.78
17254;BME280;32542;52.832;13.816;2023-04-29T07:11:50;100940.03;;;21.66;46.78
17254;BME280;32542;52.832;13.816;2023-04-29T07:14:53;100950.59;;;21.68;46.66
17254;BME280;32542;52.832;13.816;2023-04-29T07:17:57;100955.06;;;21.67;46.58
17254;BME280;32542;52.832;13.816;2023-04-29T07:21:01;100949.72;;;21.67;46.72
17254;BME280;32542;52.832;13.816;2023-04-29T07:24:05;100953.25;;;21.68;46.83
17254;BME280;32542;52.832;13.816;2023-04-29T07:27:08;100954.22;;;21.67;46.72
17254;BME280;32542;52.832;13.816;2023-04-29T07:30:11;100963.13;;;21.66;46.68
17254;BME280;32542;52.832;13.816;2023-04-29T07:33:14;100963.13;;;21.66;46.72
17254;BME280;32542;52.832;13.816;2023-04-29T07:36:17;100973.81;;;21.66;46.77
17254;BME280;32542;52.832;13.816;2023-04-29T07:39:21;100975.59;;;21.65;46.74
17254;BME280;32542;52.832;13.816;2023-04-29T07:42:29;100981.88;;;21.64;46.75
17254;BME280;32542;52.832;13.816;2023-04-29T07:45:33;100984.47;;;21.66;46.73
17254;BME280;32542;52.832;13.816;2023-04-29T07:48:36;100981.78;;;21.66;46.71
17254;BME280;32542;52.832;13.816;2023-04-29T07:51:40;100998.56;;;21.68;46.83
17254;BME280;32542;52.832;13.816;2023-04-29T07:54:45;100995.03;;;21.67;46.71
17254;BME280;32542;52.832;13.816;2023-04-29T07:57:48;101000.31;;;21.69;46.83
17254;BME280;32542;52.832;13.816;2023-04-29T08:00:51;100996.88;;;21.67;46.75
17254;BME280;32542;52.832;13.816;2023-04-29T08:03:54;101003.03;;;21.67;46.77
17254;BME280;32542;52.832;13.816;2023-04-29T08:06:59;100999.53;;;21.67;46.77
17254;BME280;32542;52.832;13.816;2023-04-29T08:10:05;101000.44;;;21.66;46.73
17254;BME280;32542;52.832;13.816;2023-04-29T08:13:10;101013.69;;;21.67;46.90
17254;BME280;32542;52.832;13.816;2023-04-29T08:16:13;101017.22;;;21.68;46.76
17254;BME280;32542;52.832;13.816;2023-04-29T08:19:16;101021.66;;;21.69;46.70
17254;BME280;32542;52.832;13.816;2023-04-29T08:22:19;101020.84;;;21.67;46.63
17254;BME280;32542;52.832;13.816;2023-04-29T08:25:23;101029.69;;;21.67;46.56
17254;BME280;32542;52.832;13.816;2023-04-29T08:28:27;101040.31;;;21.69;46.43
17254;BME280;32542;52.832;13.816;2023-04-29T08:31:30;101041.22;;;21.68;46.27
17254;BME280;32542;52.832;13.816;2023-04-29T08:34:33;101051.88;;;21.68;46.07
17254;BME280;32542;52.832;13.816;2023-04-29T08:37:36;101051.00;;;21.67;45.93
17254;BME280;32542;52.832;13.816;2023-04-29T08:40:43;101055.50;;;21.67;45.87
17254;BME280;32542;52.832;13.816;2023-04-29T08:43:47;101062.72;;;21.65;45.86
17254;BME280;32542;52.832;13.816;2023-04-29T08:46:50;101075.25;;;21.63;45.84
17254;BME280;32542;52.832;13.816;2023-04-29T08:49:53;101090.28;;;21.64;45.96
17254;BME280;32542;52.832;13.816;2023-04-29T08:52:55;101082.28;;;21.64;45.97
17254;BME280;32542;52.832;13.816;2023-04-29T08:56:03;101093.81;;;21.64;46.26
17254;BME280;32542;52.832;13.816;2023-04-29T08:59:11;101098.06;;;21.68;46.30
17254;BME280;32542;52.832;13.816;2023-04-29T09:02:15;101096.91;;;21.74;46.61
17254;BME280;32542;52.832;13.816;2023-04-29T09:05:19;101104.78;;;21.77;46.70
17254;BME280;32542;52.832;13.816;2023-04-29T09:08:23;101108.97;;;21.83;46.64
17254;BME280;32542;52.832;13.816;2023-04-29T09:11:27;101111.44;;;21.87;46.84
17254;BME280;32542;52.832;13.816;2023-04-29T09:14:31;101121.00;;;21.91;47.19
17254;BME280;32542;52.832;13.816;2023-04-29T09:17:39;101129.75;;;21.95;47.03
17254;BME280;32542;52.832;13.816;2023-04-29T09:20:42;101129.59;;;21.98;47.04
17254;BME280;32542;52.832;13.816;2023-04-29T09:23:46;101130.47;;;21.98;47.19
17254;BME280;32542;52.832;13.816;2023-04-29T09:26:51;101129.50;;;21.99;47.41
17254;BME280;32542;52.832;13.816;2023-04-29T09:29:59;101136.47;;;22.03;47.51
17254;BME280;32542;52.832;13.816;2023-04-29T09:33:04;101147.03;;;22.05;47.40
17254;BME280;32542;52.832;13.816;2023-04-29T09:36:08;101148.72;;;22.07;47.39
17254;BME280;32542;52.832;13.816;2023-04-29T09:39:12;101159.28;;;22.09;47.50
17254;BME280;32542;52.832;13.816;2023-04-29T09:42:17;101155.63;;;22.11;47.50
17254;BME280;32542;52.832;13.816;2023-04-29T09:45:32;101168.00;;;22.12;47.33
17254;BME280;32542;52.832;13.816;2023-04-29T09:48:35;101173.28;;;22.14;47.34
17254;BME280;32542;52.832;13.816;2023-04-29T09:51:51;101174.13;;;22.14;47.32
17254;BME280;32542;52.832;13.816;2023-04-29T09:55:03;101177.75;;;22.13;47.40
17254;BME280;32542;52.832;13.816;2023-04-29T09:58:26;101176.00;;;22.12;47.61
17254;BME280;32542;52.832;13.816;2023-04-29T10:01:29;101179.75;;;22.08;47.69
17254;BME280;32542;52.832;13.816;2023-04-29T10:04:33;101186.06;;;22.07;48.05
17254;BME280;32542;52.832;13.816;2023-04-29T10:07:41;101193.25;;;22.05;48.02
17254;BME280;32542;52.832;13.816;2023-04-29T10:10:44;101185.38;;;22.02;48.08
17254;BME280;32542;52.832;13.816;2023-04-29T10:13:50;101193.47;;;22.01;48.00
17254;BME280;32542;52.832;13.816;2023-04-29T10:16:58;101200.59;;;22.00;47.87
17254;BME280;32542;52.832;13.816;2023-04-29T10:20:03;101210.38;;;22.00;47.70
17254;BME280;32542;52.832;13.816;2023-04-29T10:23:10;101200.69;;;21.99;47.71
17254;BME280;32542;52.832;13.816;2023-04-29T10:26:15;101208.72;;;21.97;47.63
17254;BME280;32542;52.832;13.816;2023-04-29T10:29:21;101208.72;;;21.97;47.74
17254;BME280;32542;52.832;13.816;2023-04-29T10:32:25;101214.06;;;21.97;47.71
17254;BME280;32542;52.832;13.816;2023-04-29T10:35:44;101212.34;;;21.96;47.61
17254;BME280;32542;52.832;13.816;2023-04-29T10:38:51;101212.34;;;21.96;47.65
17254;BME280;32542;52.832;13.816;2023-04-29T10:41:56;101222.13;;;21.96;47.64
17254;BME280;32542;52.832;13.816;2023-04-29T10:45:22;101216.81;;;21.96;47.58
17254;BME280;32542;52.832;13.816;2023-04-29T10:48:25;101225.75;;;21.95;47.54
17254;BME280;32542;52.832;13.816;2023-04-29T10:51:30;101222.22;;;21.94;47.56
17254;BME280;32542;52.832;13.816;2023-04-29T10:54:33;101230.22;;;21.94;47.71
17254;BME280;32542;52.832;13.816;2023-04-29T10:57:35;101227.63;;;21.93;47.67
17254;BME280;32542;52.832;13.816;2023-04-29T11:00:40;101233.81;;;21.93;47.66
17254;BME280;32542;52.832;13.816;2023-04-29T11:03:47;101233.81;;;21.93;47.70
17254;BME280;32542;52.832;13.816;2023-04-29T11:06:56;101232.09;;;21.92;47.58
17254;BME280;32542;52.832;13.816;2023-04-29T11:10:00;101235.66;;;21.91;47.64
17254;BME280;32542;52.832;13.816;2023-04-29T11:13:23;101226.75;;;21.92;47.59
17254;BME280;32542;52.832;13.816;2023-04-29T11:16:27;101224.97;;;21.93;47.69
17254;BME280;32542;52.832;13.816;2023-04-29T11:19:32;101228.47;;;21.93;47.62
17254;BME280;32542;52.832;13.816;2023-04-29T11:22:35;101233.88;;;21.92;47.65
17254;BME280;32542;52.832;13.816;2023-04-29T11:25:38;101232.97;;;21.93;47.66
17254;BME280;32542;52.832;13.816;2023-04-29T11:28:42;101233.88;;;21.92;47.63
17254;BME280;32542;52.832;13.816;2023-04-29T11:31:46;101236.47;;;21.93;47.67
17254;BME280;32542;52.832;13.816;2023-04-29T11:34:49;101234.75;;;21.92;47.69
17254;BME280;32542;52.832;13.816;2023-04-29T11:37:52;101242.75;;;21.92;47.62
17254;BME280;32542;52.832;13.816;2023-04-29T11:40:55;101242.75;;;21.92;47.67
17254;BME280;32542;52.832;13.816;2023-04-29T11:43:59;101248.09;;;21.92;47.64
17254;BME280;32542;52.832;13.816;2023-04-29T11:47:05;101253.41;;;21.92;47.62
17254;BME280;32542;52.832;13.816;2023-04-29T11:50:08;101256.09;;;21.92;47.73
17254;BME280;32542;52.832;13.816;2023-04-29T11:53:11;101265.78;;;21.93;47.65
17254;BME280;32542;52.832;13.816;2023-04-29T11:56:14;101264.97;;;21.93;47.66
17254;BME280;32542;52.832;13.816;2023-04-29T11:59:18;101280.00;;;21.94;47.89
17254;BME280;32542;52.832;13.816;2023-04-29T12:02:22;101278.22;;;21.94;47.72
17254;BME280;32542;52.832;13.816;2023-04-29T12:05:25;101288.97;;;21.93;47.72
17254;BME280;32542;52.832;13.816;2023-04-29T12:08:29;101293.34;;;21.94;47.92
17254;BME280;32542;52.832;13.816;2023-04-29T12:11:34;101299.63;;;21.93;47.89
17254;BME280;32542;52.832;13.816;2023-04-29T12:14:39;101297.88;;;21.92;48.06
17254;BME280;32542;52.832;13.816;2023-04-29T12:17:43;101299.63;;;21.93;47.98
17254;BME280;32542;52.832;13.816;2023-04-29T12:20:47;101307.66;;;21.91;48.10
17254;BME280;32542;52.832;13.816;2023-04-29T12:23:52;101306.75;;;21.92;48.14
17254;BME280;32542;52.832;13.816;2023-04-29T12:26:55;101311.22;;;21.92;49.98
17254;BME280;32542;52.832;13.816;2023-04-29T12:30:00;101313.00;;;21.91;48.90
17254;BME280;32542;52.832;13.816;2023-04-29T12:33:06;101312.09;;;21.92;48.53
17254;BME280;32542;52.832;13.816;2023-04-29T12:36:15;101317.41;;;21.92;48.50
17254;BME280;32542;52.832;13.816;2023-04-29T12:39:19;101316.53;;;21.92;48.52
17254;BME280;32542;52.832;13.816;2023-04-29T12:42:21;101326.34;;;21.91;48.13
17254;BME280;32542;52.832;13.816;2023-04-29T12:45:26;101327.28;;;21.90;48.11
17254;BME280;32542;52.832;13.816;2023-04-29T12:48:31;101331.81;;;21.88;48.03
17254;BME280;32542;52.832;13.816;2023-04-29T12:51:35;101336.19;;;21.89;48.66
17254;BME280;32542;52.832;13.816;2023-04-29T12:54:38;101338.88;;;21.89;49.41
17254;BME280;32542;52.832;13.816;2023-04-29T12:57:44;101335.31;;;21.89;50.08
17254;BME280;32542;52.832;13.816;2023-04-29T13:00:47;101337.16;;;21.88;49.83
17254;BME280;32542;52.832;13.816;2023-04-29T13:03:52;101336.19;;;21.89;49.30
17254;BME280;32542;52.832;13.816;2023-04-29T13:06:55;101331.81;;;21.88;49.40
17254;BME280;32542;52.832;13.816;2023-04-29T13:10:01;101328.19;;;21.89;48.88
17254;BME280;32542;52.832;13.816;2023-04-29T13:13:07;101334.41;;;21.90;48.74
17254;BME280;32542;52.832;13.816;2023-04-29T13:16:11;101334.34;;;21.91;48.80
17254;BME280;32542;52.832;13.816;2023-04-29T13:19:15;101338.75;;;21.92;48.84
17254;BME280;32542;52.832;13.816;2023-04-29T13:22:32;101345.78;;;21.93;48.93
17254;BME280;32542;52.832;13.816;2023-04-29T13:25:35;101353.75;;;21.95;48.91
17254;BME280;32542;52.832;13.816;2023-04-29T13:28:38;101360.81;;;21.96;49.05
17254;BME280;32542;52.832;13.816;2023-04-29T13:31:41;101355.47;;;21.96;48.91
17254;BME280;32542;52.832;13.816;2023-04-29T13:34:46;101363.41;;;21.97;49.08
17254;BME280;32542;52.832;13.816;2023-04-29T13:37:48;101364.28;;;21.98;49.28
17254;BME280;32542;52.832;13.816;2023-04-29T13:40:51;101363.41;;;21.97;49.32
17254;BME280;32542;52.832;13.816;2023-04-29T13:43:56;101367.88;;;21.97;49.42
17254;BME280;32542;52.832;13.816;2023-04-29T13:46:59;101368.72;;;21.97;49.47
17254;BME280;32542;52.832;13.816;2023-04-29T13:50:04;101379.41;;;21.97;49.56
17254;BME280;32542;52.832;13.816;2023-04-29T13:53:10;101373.22;;;21.97;49.68
17254;BME280;32542;52.832;13.816;2023-04-29T13:56:16;101385.69;;;21.96;49.53
17254;BME280;32542;52.832;13.816;2023-04-29T13:59:22;101386.47;;;21.98;49.42
17254;BME280;32542;52.832;13.816;2023-04-29T14:02:28;101377.53;;;21.99;49.42
17254;BME280;32542;52.832;13.816;2023-04-29T14:05:32;101382.03;;;21.99;49.33
17254;BME280;32542;52.832;13.816;2023-04-29T14:08:35;101380.16;;;22.01;49.40
17254;BME280;32542;52.832;13.816;2023-04-29T14:11:38;101384.63;;;22.00;49.29
17254;BME280;32542;52.832;13.816;2023-04-29T14:14:41;101371.28;;;22.00;49.42
17254;BME280;32542;52.832;13.816;2023-04-29T14:17:44;101389.94;;;22.00;49.41
17254;BME280;32542;52.832;13.816;2023-04-29T14:20:48;101382.88;;;21.99;49.41
17254;BME280;32542;52.832;13.816;2023-04-29T14:23:51;101391.81;;;21.98;49.44
17254;BME280;32542;52.832;13.816;2023-04-29T14:26:54;101381.16;;;21.98;49.28
17254;BME280;32542;52.832;13.816;2023-04-29T14:29:58;101391.00;;;21.96;49.18
17254;BME280;32542;52.832;13.816;2023-04-29T14:33:01;101388.34;;;21.96;49.19
17254;BME280;32542;52.832;13.816;2023-04-29T14:36:06;101395.47;;;21.96;49.05
17254;BME280;32542;52.832;13.816;2023-04-29T14:39:09;101391.94;;;21.95;49.58
17254;BME280;32542;52.832;13.816;2023-04-29T14:42:12;101399.00;;;21.96;49.78
17254;BME280;32542;52.832;13.816;2023-04-29T14:45:15;101399.00;;;21.96;49.89
17254;BME280;32542;52.832;13.816;2023-04-29T14:48:18;101395.41;;;21.97;49.76
17254;BME280;32542;52.832;13.816;2023-04-29T14:51:22;101400.72;;;21.97;49.72
17254;BME280;32542;52.832;13.816;2023-04-29T14:54:26;101409.69;;;21.96;49.48
17254;BME280;32542;52.832;13.816;2023-04-29T14:57:28;101404.34;;;21.96;49.41
17254;BME280;32542;52.832;13.816;2023-04-29T15:00:31;101400.72;;;21.97;49.26
17254;BME280;32542;52.832;13.816;2023-04-29T15:03:34;101416.72;;;21.97;49.46
17254;BME280;32542;52.832;13.816;2023-04-29T15:06:46;101415.00;;;21.96;49.53
17254;BME280;32542;52.832;13.816;2023-04-29T15:09:49;101415.00;;;21.96;49.53
17254;BME280;32542;52.832;13.816;2023-04-29T15:12:52;101419.47;;;21.96;49.51
17254;BME280;32542;52.832;13.816;2023-04-29T15:15:55;101415.94;;;21.95;49.45
17254;BME280;32542;52.832;13.816;2023-04-29T15:18:58;101409.75;;;21.95;49.43
17254;BME280;32542;52.832;13.816;2023-04-29T15:22:02;101418.59;;;21.95;49.34
17254;BME280;32542;52.832;13.816;2023-04-29T15:25:06;101429.25;;;21.95;49.41
17254;BME280;32542;52.832;13.816;2023-04-29T15:28:09;101416.81;;;21.96;49.67
17254;BME280;32542;52.832;13.816;2023-04-29T15:31:12;101426.56;;;21.97;50.00
17254;BME280;32542;52.832;13.816;2023-04-29T15:34:15;101416.72;;;21.97;50.04
17254;BME280;32542;52.832;13.816;2023-04-29T15:37:19;101420.19;;;21.99;49.90
17254;BME280;32542;52.832;13.816;2023-04-29T15:40:24;101429.94;;;22.00;49.74
17254;BME280;32542;52.832;13.816;2023-04-29T15:43:27;101431.69;;;22.01;49.77
17254;BME280;32542;52.832;13.816;2023-04-29T15:46:30;101434.38;;;22.01;50.04
17254;BME280;32542;52.832;13.816;2023-04-29T15:49:33;101437.03;;;22.01;49.97
17254;BME280;32542;52.832;13.816;2023-04-29T15:52:37;101447.72;;;22.01;49.80
17254;BME280;32542;52.832;13.816;2023-04-29T15:55:40;101455.72;;;22.01;49.84
17254;BME280;32542;52.832;13.816;2023-04-29T15:58:43;101459.28;;;22.00;49.79